createdAt,value
2018-12-14T00:00:32.430Z,14.60
2018-12-14T00:03:00.030Z,13.47
2018-12-14T00:05:27.556Z,14.90
2018-12-14T00:07:55.255Z,14.03
2018-12-14T00:10:22.780Z,14.17
2018-12-14T00:12:50.319Z,13.70
2018-12-14T00:15:17.973Z,13.50
2018-12-14T00:17:45.748Z,14.43
2018-12-14T00:20:13.271Z,17.40
2018-12-14T00:22:41.052Z,14.17
2018-12-14T00:25:08.719Z,14.20
2018-12-14T00:27:36.235Z,13.47
2018-12-14T00:30:04.537Z,14.23
2018-12-14T00:32:32.278Z,13.83
2018-12-14T00:34:59.804Z,12.13
2018-12-14T00:37:27.368Z,11.20
2018-12-14T00:39:54.892Z,11.60
2018-12-14T00:42:22.862Z,13.33
2018-12-14T00:44:50.376Z,14.50
2018-12-14T00:47:17.918Z,14.50
2018-12-14T00:49:45.445Z,13.50
2018-12-14T00:52:12.974Z,13.23
2018-12-14T00:54:40.517Z,13.93
2018-12-14T00:57:08.095Z,12.20
2018-12-14T00:59:35.624Z,13.93
2018-12-14T01:02:05.505Z,11.67
2018-12-14T01:04:33.039Z,13.97
2018-12-14T01:07:00.577Z,11.97
2018-12-14T01:09:28.099Z,13.20
2018-12-14T01:11:58.375Z,12.63
2018-12-14T01:14:25.196Z,14.20
2018-12-14T01:16:52.731Z,12.90
2018-12-14T01:21:54.517Z,12.90
2018-12-14T01:24:22.324Z,11.00
2018-12-14T01:26:50.330Z,12.70
2018-12-14T01:29:17.862Z,13.07
2018-12-14T01:31:45.395Z,13.03
2018-12-14T01:34:12.942Z,10.87
2018-12-14T01:36:40.486Z,11.47
2018-12-14T01:39:08.000Z,11.77
2018-12-14T01:41:35.528Z,13.43
2018-12-14T01:44:03.307Z,11.27
2018-12-14T01:46:30.844Z,10.90
2018-12-14T01:48:58.389Z,11.00
2018-12-14T01:51:25.949Z,10.40
2018-12-14T01:53:53.482Z,12.67
2018-12-14T01:56:21.016Z,11.87
2018-12-14T01:58:48.562Z,12.40
2018-12-14T02:01:16.361Z,11.53
2018-12-14T02:03:44.004Z,11.80
2018-12-14T02:06:11.617Z,11.73
2018-12-14T02:08:39.145Z,12.43
2018-12-14T02:11:06.675Z,12.90
2018-12-14T02:13:34.230Z,12.40
2018-12-14T02:16:01.778Z,11.60
2018-12-14T02:18:29.592Z,12.13
2018-12-14T02:20:57.136Z,12.50
2018-12-14T02:23:24.678Z,13.07
2018-12-14T02:25:52.290Z,12.10
2018-12-14T02:28:20.106Z,12.77
2018-12-14T02:30:47.698Z,12.70
2018-12-14T02:33:15.238Z,11.77
2018-12-14T02:35:43.088Z,12.63
2018-12-14T02:38:10.595Z,12.00
2018-12-14T02:40:38.125Z,13.53
2018-12-14T02:43:05.712Z,12.57
2018-12-14T02:45:33.237Z,12.63
2018-12-14T02:48:00.770Z,14.43
2018-12-14T02:50:28.348Z,13.47
2018-12-14T02:52:55.928Z,13.57
2018-12-14T02:55:23.457Z,10.07
2018-12-14T02:57:51.043Z,11.50
2018-12-14T03:00:18.596Z,14.60
2018-12-14T03:02:46.205Z,16.23
2018-12-14T03:05:13.725Z,15.13
2018-12-14T03:07:41.257Z,14.13
2018-12-14T03:10:08.954Z,15.40
2018-12-14T03:12:36.841Z,18.00
2018-12-14T03:15:05.285Z,18.27
2018-12-14T03:17:32.947Z,17.20
2018-12-14T03:20:00.491Z,19.20
2018-12-14T03:22:28.378Z,19.80
2018-12-14T03:24:55.901Z,20.33
2018-12-14T03:27:23.491Z,20.37
2018-12-14T03:29:51.019Z,19.67
2018-12-14T03:32:18.592Z,19.03
2018-12-14T03:34:46.166Z,20.70
2018-12-14T03:37:13.721Z,20.87
2018-12-14T03:39:41.991Z,20.43
2018-12-14T03:42:09.833Z,20.87
2018-12-14T03:44:37.479Z,18.83
2018-12-14T03:47:05.131Z,20.17
2018-12-14T03:49:32.661Z,17.60
2018-12-14T03:52:00.203Z,18.87
2018-12-14T03:54:27.733Z,19.97
2018-12-14T03:56:55.333Z,18.47
2018-12-14T03:59:23.092Z,13.43
2018-12-14T04:01:50.611Z,13.43
2018-12-14T04:04:18.154Z,12.93
2018-12-14T04:06:45.733Z,10.90
2018-12-14T04:09:13.857Z,11.53
2018-12-14T04:11:41.436Z,13.27
2018-12-14T04:14:08.974Z,11.00
2018-12-14T04:16:36.674Z,11.83
2018-12-14T04:19:04.276Z,12.80
2018-12-14T04:21:31.857Z,16.63
2018-12-14T04:23:59.620Z,17.53
2018-12-14T04:26:27.217Z,19.93
2018-12-14T04:28:54.830Z,12.97
2018-12-14T04:31:22.439Z,13.70
2018-12-14T04:33:49.961Z,18.73
2018-12-14T04:36:17.507Z,16.60
2018-12-14T04:38:45.039Z,20.10
2018-12-14T04:41:12.582Z,17.83
2018-12-14T04:43:40.110Z,17.87
2018-12-14T04:46:08.053Z,18.93
2018-12-14T04:48:35.623Z,17.77
2018-12-14T04:51:03.247Z,18.20
2018-12-14T04:53:30.799Z,21.27
2018-12-14T04:55:58.372Z,18.77
2018-12-14T04:58:25.915Z,17.60
2018-12-14T05:00:53.453Z,15.70
2018-12-14T05:03:20.997Z,13.23
2018-12-14T05:05:48.588Z,12.60
2018-12-14T05:08:16.176Z,13.90
2018-12-14T05:10:43.977Z,11.20
2018-12-14T05:13:11.529Z,13.93
2018-12-14T05:15:39.058Z,14.17
2018-12-14T05:18:06.589Z,12.67
2018-12-14T05:20:34.167Z,12.37
2018-12-14T05:23:01.705Z,12.00
2018-12-14T05:25:29.231Z,12.80
2018-12-14T05:27:56.766Z,12.50
2018-12-14T05:30:24.407Z,12.00
2018-12-14T05:32:51.948Z,14.57
2018-12-14T05:35:19.948Z,14.60
2018-12-14T05:37:47.506Z,14.80
2018-12-14T05:40:15.063Z,12.20
2018-12-14T05:42:42.926Z,12.93
2018-12-14T05:45:10.476Z,11.97
2018-12-14T05:47:38.182Z,13.00
2018-12-14T05:50:05.987Z,10.53
2018-12-14T05:52:33.545Z,12.37
2018-12-14T05:55:01.389Z,12.00
2018-12-14T05:57:28.973Z,12.30
2018-12-14T05:59:56.551Z,13.07
2018-12-14T06:02:24.181Z,11.37
2018-12-14T06:04:51.757Z,13.07
2018-12-14T06:09:53.451Z,11.23
2018-12-14T06:12:21.377Z,13.00
2018-12-14T06:14:48.904Z,13.50
2018-12-14T06:17:16.508Z,12.50
2018-12-14T06:19:44.094Z,12.97
2018-12-14T06:22:11.627Z,12.93
2018-12-14T06:24:39.538Z,11.00
2018-12-14T06:27:07.130Z,12.50
2018-12-14T06:29:34.640Z,13.70
2018-12-14T06:32:02.868Z,12.30
2018-12-14T06:34:30.446Z,11.60
2018-12-14T06:36:58.284Z,11.80
2018-12-14T06:39:25.938Z,12.20
2018-12-14T06:41:53.463Z,13.60
2018-12-14T06:44:21.005Z,15.83
2018-12-14T06:46:48.526Z,15.00
2018-12-14T06:49:16.053Z,11.40
2018-12-14T06:51:43.594Z,15.27
2018-12-14T06:54:11.123Z,17.80
2018-12-14T06:56:38.653Z,19.00
2018-12-14T06:59:06.180Z,16.20
2018-12-14T07:01:33.723Z,17.13
2018-12-14T07:04:01.259Z,18.23
2018-12-14T07:06:29.541Z,17.80
2018-12-14T07:08:57.116Z,11.27
2018-12-14T07:11:24.785Z,9.37
2018-12-14T07:13:52.376Z,8.73
2018-12-14T07:16:21.154Z,14.97
2018-12-14T07:18:48.696Z,21.57
2018-12-14T07:21:16.516Z,16.30
2018-12-14T07:23:44.057Z,17.90
2018-12-14T07:26:11.597Z,17.13
2018-12-14T07:28:39.118Z,17.27
2018-12-14T07:31:06.671Z,16.47
2018-12-14T07:33:34.231Z,14.10
2018-12-14T07:36:01.782Z,23.37
2018-12-14T07:38:29.309Z,12.80
2018-12-14T07:40:56.839Z,13.60
2018-12-14T07:43:28.308Z,11.20
2018-12-14T07:45:53.962Z,10.97
2018-12-14T07:48:21.517Z,11.30
2018-12-14T07:50:49.044Z,11.00
2018-12-14T07:53:16.591Z,11.07
2018-12-14T07:55:44.115Z,10.97
2018-12-14T07:58:11.646Z,9.87
2018-12-14T08:00:39.194Z,11.40
2018-12-14T08:03:06.741Z,12.60
2018-12-14T08:05:34.393Z,12.23
2018-12-14T08:08:02.058Z,11.57
2018-12-14T08:10:29.593Z,10.67
2018-12-14T08:12:57.607Z,9.40
2018-12-14T08:15:25.627Z,9.50
2018-12-14T08:17:53.161Z,9.03
2018-12-14T08:20:20.935Z,9.90
2018-12-14T08:22:48.468Z,10.30
2018-12-14T08:25:15.982Z,8.90
2018-12-14T08:27:43.520Z,8.60
2018-12-14T08:30:11.034Z,8.07
2018-12-14T08:32:38.576Z,9.90
2018-12-14T08:35:07.322Z,8.27
2018-12-14T08:37:34.842Z,8.63
2018-12-14T08:40:02.401Z,7.93
2018-12-14T08:42:29.936Z,8.27
2018-12-14T08:44:57.477Z,8.20
2018-12-14T08:47:26.162Z,8.97
2018-12-14T08:49:53.976Z,9.93
2018-12-14T08:52:21.502Z,8.27
2018-12-14T08:54:49.022Z,9.53
2018-12-14T08:57:16.553Z,8.80
2018-12-14T08:59:44.075Z,7.90
2018-12-14T09:02:11.610Z,9.23
2018-12-14T09:04:39.138Z,8.17
2018-12-14T09:07:06.684Z,8.53
2018-12-14T09:09:34.225Z,9.17
2018-12-14T09:12:01.761Z,10.50
2018-12-14T09:14:29.303Z,9.90
2018-12-14T09:16:56.860Z,9.23
2018-12-14T09:19:24.481Z,10.53
2018-12-14T09:21:52.165Z,9.87
2018-12-14T09:24:19.717Z,9.73
2018-12-14T09:26:47.276Z,9.53
2018-12-14T09:29:15.015Z,9.13
2018-12-14T09:31:42.745Z,10.80
2018-12-14T09:34:10.355Z,9.80
2018-12-14T09:36:37.924Z,11.10
2018-12-14T09:39:05.931Z,10.20
2018-12-14T09:41:33.481Z,10.30
2018-12-14T09:44:01.068Z,8.80
2018-12-14T09:46:28.631Z,8.77
2018-12-14T09:48:56.222Z,8.50
2018-12-14T09:51:24.471Z,8.23
2018-12-14T09:53:52.028Z,9.53
2018-12-14T09:56:19.600Z,10.33
2018-12-14T09:58:47.196Z,9.97
2018-12-14T10:01:14.755Z,10.90
2018-12-14T10:03:42.466Z,10.17
2018-12-14T10:06:15.501Z,10.00
2018-12-14T10:08:39.594Z,9.63
2018-12-14T10:11:08.731Z,10.60
2018-12-14T10:13:37.052Z,12.67
2018-12-14T10:16:04.663Z,15.00
2018-12-14T10:18:32.485Z,10.80
2018-12-14T10:21:00.021Z,19.17
2018-12-14T10:23:27.551Z,12.30
2018-12-14T10:25:55.166Z,13.63
2018-12-14T10:28:22.736Z,11.90
2018-12-14T10:30:50.455Z,11.90
2018-12-14T10:33:17.993Z,13.63
2018-12-14T10:35:45.538Z,12.43
2018-12-14T10:38:13.099Z,12.63
2018-12-14T10:40:40.977Z,13.63
2018-12-14T10:43:08.519Z,15.57
2018-12-14T10:45:36.224Z,12.03
2018-12-14T10:48:03.924Z,10.87
2018-12-14T10:50:38.666Z,13.33
2018-12-14T10:53:04.611Z,13.17
2018-12-14T10:55:32.485Z,12.10
2018-12-14T10:58:00.022Z,11.97
2018-12-14T11:00:33.283Z,12.50
2018-12-14T11:03:00.833Z,14.67
2018-12-14T11:05:28.436Z,12.30
2018-12-14T11:07:56.864Z,14.83
2018-12-14T11:10:24.748Z,13.47
2018-12-14T11:12:52.299Z,15.33
2018-12-14T11:15:20.093Z,16.57
2018-12-14T11:17:47.904Z,13.40
2018-12-14T11:20:15.420Z,14.03
2018-12-14T11:22:43.036Z,15.30
2018-12-14T11:25:10.574Z,12.83
2018-12-14T11:27:39.363Z,14.43
2018-12-14T11:30:08.528Z,14.00
2018-12-14T11:32:36.080Z,14.73
2018-12-14T11:35:04.234Z,13.73
2018-12-14T11:37:31.770Z,12.47
2018-12-14T11:39:59.305Z,12.43
2018-12-14T11:42:27.137Z,13.80
2018-12-14T11:44:54.670Z,12.63
2018-12-14T11:47:22.229Z,12.60
2018-12-14T11:49:49.785Z,12.20
2018-12-14T11:52:17.326Z,12.03
2018-12-14T11:54:46.498Z,13.73
2018-12-14T11:57:14.029Z,13.60
2018-12-14T11:59:41.645Z,12.30
2018-12-14T12:02:09.180Z,12.47
2018-12-14T12:04:36.701Z,13.63
2018-12-14T12:07:05.097Z,12.47
2018-12-14T12:09:33.444Z,11.90
2018-12-14T12:12:01.155Z,12.97
2018-12-14T12:14:28.690Z,12.20
2018-12-14T12:16:56.235Z,13.07
2018-12-14T12:19:23.746Z,12.03
2018-12-14T12:21:51.270Z,15.37
2018-12-14T12:24:18.777Z,12.83
2018-12-14T12:26:46.321Z,13.00
2018-12-14T12:29:13.964Z,13.10
2018-12-14T12:31:41.558Z,11.27
2018-12-14T12:34:09.181Z,14.10
2018-12-14T12:36:36.946Z,13.30
2018-12-14T12:39:05.920Z,12.70
2018-12-14T12:41:33.829Z,12.03
2018-12-14T12:44:01.459Z,13.93
2018-12-14T12:46:28.972Z,13.00
2018-12-14T12:49:00.679Z,13.17
2018-12-14T12:51:28.842Z,12.63
2018-12-14T12:53:56.890Z,12.93
2018-12-14T12:56:24.704Z,12.67
2018-12-14T12:58:52.501Z,10.90
2018-12-14T13:01:20.043Z,11.20
2018-12-14T13:03:47.566Z,12.90
2018-12-14T13:08:49.739Z,14.37
2018-12-14T13:11:19.103Z,11.60
2018-12-14T13:13:46.771Z,13.63
2018-12-14T13:16:14.313Z,12.67
2018-12-14T13:18:45.992Z,12.23
2018-12-14T13:21:14.998Z,12.50
2018-12-14T13:23:42.551Z,12.30
2018-12-14T13:26:10.072Z,11.07
2018-12-14T13:28:37.716Z,13.93
2018-12-14T13:31:05.235Z,13.10
2018-12-14T13:33:32.870Z,13.47
2018-12-14T13:36:00.556Z,11.93
2018-12-14T13:38:28.100Z,12.40
2018-12-14T13:41:04.725Z,11.10
2018-12-14T13:43:33.762Z,12.10
2018-12-14T13:46:01.303Z,12.87
2018-12-14T13:48:28.843Z,11.10
2018-12-14T13:50:56.390Z,11.80
2018-12-14T13:53:23.967Z,11.70
2018-12-14T13:55:51.715Z,10.20
2018-12-14T13:58:19.236Z,10.90
2018-12-14T14:00:47.044Z,10.27
2018-12-14T14:03:14.574Z,10.90
2018-12-14T14:05:42.128Z,10.30
2018-12-14T14:08:09.661Z,10.10
2018-12-14T14:10:37.256Z,15.20
2018-12-14T14:13:04.824Z,15.50
2018-12-14T14:15:32.384Z,12.17
2018-12-14T14:17:59.920Z,12.70
2018-12-14T14:20:27.464Z,10.30
2018-12-14T14:22:55.040Z,15.17
2018-12-14T14:25:22.618Z,10.80
2018-12-14T14:27:50.184Z,15.80
2018-12-14T14:30:17.749Z,11.60
2018-12-14T14:32:45.289Z,11.37
2018-12-14T14:35:12.825Z,10.63
2018-12-14T14:37:40.357Z,11.80
2018-12-14T14:40:08.015Z,9.80
2018-12-14T14:42:35.826Z,10.27
2018-12-14T14:45:03.546Z,11.05
2018-12-14T14:47:31.173Z,10.90
2018-12-14T14:49:58.757Z,10.80
2018-12-14T14:52:26.295Z,11.93
2018-12-14T14:54:53.858Z,10.10
2018-12-14T14:57:21.403Z,10.57
2018-12-14T14:59:49.005Z,11.33
2018-12-14T15:02:16.572Z,9.50
2018-12-14T15:04:45.210Z,12.07
2018-12-14T15:07:12.766Z,10.90
2018-12-14T15:09:40.369Z,10.60
2018-12-14T15:12:07.924Z,9.63
2018-12-14T15:14:35.483Z,10.17
2018-12-14T15:17:03.031Z,9.80
2018-12-14T15:19:30.589Z,10.57
2018-12-14T15:22:04.356Z,11.50
2018-12-14T15:24:27.777Z,10.40
2018-12-14T15:26:55.330Z,10.73
2018-12-14T15:29:22.896Z,12.13
2018-12-14T15:31:50.648Z,9.37
2018-12-14T15:34:18.216Z,12.40
2018-12-14T15:36:45.913Z,15.37
2018-12-14T15:39:13.481Z,11.37
2018-12-14T15:41:41.048Z,21.50
2018-12-14T15:44:08.619Z,13.03
2018-12-14T15:46:36.166Z,12.60
2018-12-14T15:49:03.870Z,11.10
2018-12-14T15:51:31.404Z,14.77
2018-12-14T15:53:58.958Z,14.63
2018-12-14T15:56:26.532Z,15.50
2018-12-14T15:58:54.099Z,13.37
2018-12-14T16:01:21.649Z,13.03
2018-12-14T16:03:49.183Z,12.43
2018-12-14T16:06:16.722Z,17.07
2018-12-14T16:08:44.261Z,16.00
2018-12-14T16:11:11.818Z,16.97
2018-12-14T16:13:39.398Z,16.17
2018-12-14T16:16:07.122Z,16.60
2018-12-14T16:18:34.702Z,12.70
2018-12-14T16:21:02.289Z,10.98
2018-12-14T16:23:29.936Z,13.30
2018-12-14T16:25:57.541Z,10.38
2018-12-14T16:28:25.179Z,12.90
2018-12-14T16:30:52.737Z,12.50
2018-12-14T16:33:20.318Z,10.33
2018-12-14T16:35:47.868Z,11.33
2018-12-14T16:38:15.724Z,13.33
2018-12-14T16:40:43.281Z,10.77
2018-12-14T16:43:10.926Z,13.47
2018-12-14T16:45:38.482Z,13.40
2018-12-14T16:48:06.074Z,12.07
2018-12-14T16:50:33.659Z,19.75
2018-12-14T16:53:01.291Z,12.40
2018-12-14T16:55:28.820Z,13.00
2018-12-14T16:57:57.117Z,14.60
2018-12-14T17:00:24.671Z,12.37
2018-12-14T17:02:52.326Z,12.60
2018-12-14T17:05:20.180Z,13.53
2018-12-14T17:07:47.905Z,14.23
2018-12-14T17:10:15.437Z,14.65
2018-12-14T17:12:43.239Z,14.20
2018-12-14T17:15:10.829Z,14.30
2018-12-14T17:17:38.453Z,14.13
2018-12-14T17:20:07.060Z,15.00
2018-12-14T17:22:34.651Z,14.10
2018-12-14T17:25:02.230Z,14.70
2018-12-14T17:27:29.780Z,13.63
2018-12-14T17:29:57.403Z,15.00
2018-12-14T17:32:24.927Z,11.80
2018-12-14T17:34:52.579Z,11.80
2018-12-14T17:37:20.255Z,18.57
2018-12-14T17:39:47.844Z,17.30
2018-12-14T17:42:15.610Z,15.90
2018-12-14T17:44:43.252Z,15.17
2018-12-14T17:47:12.186Z,14.20
2018-12-14T17:49:40.508Z,15.28
2018-12-14T17:52:08.744Z,15.17
2018-12-14T17:54:36.355Z,15.80
2018-12-14T17:57:03.997Z,18.17
2018-12-14T17:59:31.555Z,20.27
2018-12-14T18:01:59.137Z,19.63
2018-12-14T18:04:26.813Z,15.47
2018-12-14T18:06:54.354Z,14.65
2018-12-14T18:09:21.988Z,15.23
2018-12-14T18:11:49.675Z,14.73
2018-12-14T18:14:17.305Z,15.33
2018-12-14T18:16:45.126Z,14.60
2018-12-14T18:19:12.959Z,15.00
2018-12-14T18:21:40.513Z,14.50
2018-12-14T18:24:08.132Z,16.17
2018-12-14T18:26:35.726Z,16.40
2018-12-14T18:29:03.400Z,17.83
2018-12-14T18:31:30.968Z,19.70
2018-12-14T18:33:58.616Z,15.70
2018-12-14T18:36:26.159Z,15.73
2018-12-14T18:38:53.723Z,15.10
2018-12-14T18:41:21.294Z,17.00
2018-12-14T18:43:49.309Z,16.43
2018-12-14T18:46:16.900Z,15.07
2018-12-14T18:48:45.546Z,15.63
2018-12-14T18:51:13.363Z,16.70
2018-12-14T18:53:42.899Z,17.43
2018-12-14T18:56:11.272Z,20.20
2018-12-14T18:58:38.852Z,16.40
2018-12-14T19:01:06.491Z,18.40
2018-12-14T19:03:34.129Z,16.63
2018-12-14T19:06:01.769Z,19.60
2018-12-14T19:08:29.471Z,16.33
2018-12-14T19:10:57.031Z,15.90
2018-12-14T19:13:24.604Z,16.20
2018-12-14T19:15:52.253Z,16.90
2018-12-14T19:18:19.825Z,18.00
2018-12-14T19:20:47.407Z,48.20
2018-12-14T19:23:19.582Z,47.47
2018-12-14T19:25:44.674Z,18.77
2018-12-14T19:28:12.642Z,18.07
2018-12-14T19:30:40.261Z,15.70
2018-12-14T19:33:07.835Z,25.90
2018-12-14T19:35:35.451Z,18.67
2018-12-14T19:38:04.041Z,20.60
2018-12-14T19:40:31.624Z,18.47
2018-12-14T19:43:00.410Z,16.00
2018-12-14T19:45:28.060Z,18.90
2018-12-14T19:47:55.664Z,16.77
2018-12-14T19:50:23.221Z,16.70
2018-12-14T19:52:51.575Z,19.63
2018-12-14T19:55:19.129Z,26.50
2018-12-14T19:57:46.685Z,22.73
2018-12-14T20:00:14.276Z,16.65
2018-12-14T20:02:41.930Z,17.43
2018-12-14T20:05:09.510Z,16.83
2018-12-14T20:07:37.090Z,15.15
2018-12-14T20:10:07.012Z,17.40
2018-12-14T20:12:34.749Z,20.57
2018-12-14T20:15:02.294Z,24.00
2018-12-14T20:17:30.661Z,21.65
2018-12-14T20:19:58.215Z,18.50
2018-12-14T20:22:28.979Z,18.93
2018-12-14T20:24:56.626Z,18.27
2018-12-14T20:27:24.281Z,18.43
2018-12-14T20:29:51.887Z,17.65
2018-12-14T20:32:19.895Z,19.23
2018-12-14T20:34:51.628Z,16.80
2018-12-14T20:40:05.492Z,16.50
2018-12-14T20:42:33.367Z,15.33
2018-12-14T20:45:01.271Z,15.30
2018-12-14T20:47:29.227Z,15.32
2018-12-14T20:49:56.837Z,17.70
2018-12-14T20:52:24.758Z,16.42
2018-12-14T20:54:52.346Z,15.90
2018-12-14T20:57:19.976Z,15.23
2018-12-14T20:59:47.705Z,15.93
2018-12-14T21:02:15.454Z,15.57
2018-12-14T21:04:43.018Z,16.17
2018-12-14T21:07:10.843Z,17.33
2018-12-14T21:09:38.403Z,16.67
2018-12-14T21:12:05.972Z,16.47
2018-12-14T21:14:33.789Z,14.93
2018-12-14T21:17:01.346Z,16.03
2018-12-14T21:19:29.424Z,15.93
2018-12-14T21:21:56.978Z,18.03
2018-12-14T21:24:25.180Z,16.40
2018-12-14T21:26:52.862Z,15.70
2018-12-14T21:29:21.307Z,17.60
2018-12-14T21:31:48.851Z,15.57
2018-12-14T21:34:16.995Z,15.37
2018-12-14T21:36:44.696Z,17.60
2018-12-14T21:39:12.257Z,17.90
2018-12-14T21:41:39.910Z,14.80
2018-12-14T21:44:07.853Z,16.67
2018-12-14T21:46:35.419Z,18.23
2018-12-14T21:49:02.976Z,16.17
2018-12-14T21:51:30.526Z,16.30
2018-12-14T21:53:59.405Z,15.40
2018-12-14T21:56:26.969Z,18.43
2018-12-14T21:58:54.506Z,18.67
2018-12-14T22:01:22.063Z,16.20
2018-12-14T22:03:49.610Z,16.60
2018-12-14T22:06:17.173Z,16.37
2018-12-14T22:08:44.720Z,17.73
2018-12-14T22:11:12.321Z,14.50
2018-12-14T22:13:39.968Z,15.03
2018-12-14T22:16:07.531Z,16.50
2018-12-14T22:18:35.068Z,16.73
2018-12-14T22:21:02.618Z,17.40
2018-12-14T22:23:30.268Z,16.37
2018-12-14T22:25:57.860Z,16.03
2018-12-14T22:28:25.416Z,14.80
2018-12-14T22:30:53.258Z,14.40
2018-12-14T22:33:20.789Z,15.07
2018-12-14T22:35:48.341Z,17.13
2018-12-14T22:38:16.722Z,15.90
2018-12-14T22:40:44.260Z,17.90
2018-12-14T22:43:11.801Z,16.80
2018-12-14T22:45:39.348Z,15.32
2018-12-14T22:48:07.221Z,15.73
2018-12-14T22:50:34.772Z,17.70
2018-12-14T22:53:02.317Z,17.37
2018-12-14T22:55:29.862Z,17.23
2018-12-14T22:57:57.734Z,15.87
2018-12-14T23:00:25.945Z,17.93
2018-12-14T23:02:53.481Z,17.80
2018-12-14T23:05:21.497Z,17.62
2018-12-14T23:07:49.123Z,16.93
2018-12-14T23:10:16.667Z,16.30
2018-12-14T23:12:44.206Z,17.10
2018-12-14T23:15:11.744Z,18.50
2018-12-14T23:17:39.280Z,17.63
2018-12-14T23:20:07.256Z,19.03
2018-12-14T23:22:34.879Z,18.27
2018-12-14T23:25:02.518Z,18.63
2018-12-14T23:27:30.053Z,18.90
2018-12-14T23:29:57.587Z,18.33
2018-12-14T23:32:25.173Z,19.00
2018-12-14T23:34:52.711Z,18.23
2018-12-14T23:37:20.315Z,16.63
2018-12-14T23:39:47.899Z,18.40
2018-12-14T23:42:15.464Z,21.40
2018-12-14T23:44:42.993Z,18.80
2018-12-14T23:47:10.766Z,20.30
2018-12-14T23:49:38.325Z,19.10
2018-12-14T23:52:05.858Z,17.70
2018-12-14T23:54:33.391Z,17.80
2018-12-14T23:57:01.061Z,17.90
2018-12-14T23:59:28.597Z,19.90
